Time;durP1;ratioP1;P1;durP2;ratioP2;P2;SDS_P1;SDS_P2;PMS_P1;PMS_P2;Temp;Humidity;BMP_temperature;BMP_pressure;BME280_temperature;BME280_humidity;BME280_pressure;Samples;Min_cycle;Max_cycle;Signal;HPM_P1;HPM_P2
2021/12/31 00:02:25;;;;;;;6.40;3.15;;;;;;;;;;5053335;28;20481;-69
2021/12/31 00:04:52;;;;;;;5.65;2.65;;;;;;;;;;5043521;28;20025;-69
2021/12/31 00:07:18;;;;;;;4.95;2.60;;;;;;;;;;5048794;28;20354;-71
2021/12/31 00:09:44;;;;;;;7.00;3.30;;;;;;;;;;5031503;28;20021;-69
2021/12/31 00:12:10;;;;;;;6.15;2.70;;;;;;;;;;5049884;28;20113;-71
2021/12/31 00:14:37;;;;;;;4.40;2.45;;;;;;;;;;5051079;28;20428;-71
2021/12/31 00:17:04;;;;;;;7.97;3.22;;;;;;;;;;5052339;28;20025;-68
2021/12/31 00:19:33;;;;;;;5.30;2.80;;;;;;;;;;5045418;28;20028;-69
2021/12/31 00:22:10;;;;;;;4.07;2.95;;;;;;;;;;5045649;28;20044;-68
2021/12/31 00:24:36;;;;;;;5.97;3.25;;;;;;;;;;5050440;28;20457;-69
2021/12/31 00:27:03;;;;;;;4.53;2.40;;;;;;;;;;5055291;28;20040;-68
2021/12/31 00:29:29;;;;;;;8.18;2.70;;;;;;;;;;5054732;28;20024;-68
2021/12/31 00:31:55;;;;;;;6.75;2.95;;;;;;;;;;5039753;28;20382;-69
2021/12/31 00:34:21;;;;;;;4.80;3.42;;;;;;;;;;5043533;28;21578;-68
2021/12/31 00:36:47;;;;;;;5.22;2.85;;;;;;;;;;5053342;28;20107;-68
2021/12/31 00:39:16;;;;;;;6.00;2.70;;;;;;;;;;5049037;28;20116;-69
2021/12/31 00:41:43;;;;;;;4.68;2.70;;;;;;;;;;5050100;28;20052;-68
2021/12/31 00:44:09;;;;;;;9.20;3.15;;;;;;;;;;5034644;28;20076;-69
2021/12/31 00:46:35;;;;;;;5.63;2.80;;;;;;;;;;5048005;28;20134;-68
2021/12/31 00:49:03;;;;;;;5.70;2.90;;;;;;;;;;5048542;28;20035;-69
2021/12/31 00:51:30;;;;;;;5.00;2.90;;;;;;;;;;5056421;28;20115;-68
2021/12/31 00:53:56;;;;;;;5.13;3.10;;;;;;;;;;5043346;28;20539;-68
2021/12/31 00:56:22;;;;;;;10.98;3.30;;;;;;;;;;5059567;28;20027;-69
2021/12/31 00:58:49;;;;;;;5.18;3.00;;;;;;;;;;5046859;28;20036;-68
2021/12/31 01:01:20;;;;;;;6.72;3.08;;;;;;;;;;5048294;28;20158;-69
2021/12/31 01:03:47;;;;;;;6.53;2.90;;;;;;;;;;5042640;28;20139;-68
2021/12/31 01:06:13;;;;;;;5.60;3.00;;;;;;;;;;5056739;28;20040;-69
2021/12/31 01:08:40;;;;;;;5.82;3.22;;;;;;;;;;5038396;28;20025;-68
2021/12/31 01:11:06;;;;;;;8.48;3.28;;;;;;;;;;5058707;28;20477;-68
2021/12/31 01:16:19;;;;;;;4.65;2.67;;;;;;;;;;5051606;28;20047;-69
2021/12/31 01:21:18;;;;;;;5.05;3.10;;;;;;;;;;5051374;28;20040;-69
2021/12/31 01:23:44;;;;;;;8.70;3.70;;;;;;;;;;5040058;28;20040;-69
2021/12/31 01:26:11;;;;;;;9.82;3.80;;;;;;;;;;5054160;28;20084;-68
2021/12/31 01:28:37;;;;;;;7.15;2.85;;;;;;;;;;5043200;28;20018;-71
2021/12/31 01:31:04;;;;;;;5.05;3.13;;;;;;;;;;5055861;28;20508;-69
2021/12/31 01:33:30;;;;;;;7.35;3.63;;;;;;;;;;5049366;28;20025;-68
2021/12/31 01:35:57;;;;;;;6.00;3.25;;;;;;;;;;5054248;28;20383;-69
2021/12/31 01:38:23;;;;;;;7.95;3.33;;;;;;;;;;5055909;28;20170;-70
2021/12/31 01:40:50;;;;;;;6.38;3.75;;;;;;;;;;5040893;28;20037;-69
2021/12/31 01:43:17;;;;;;;6.60;4.00;;;;;;;;;;5041486;28;20484;-69
2021/12/31 01:45:46;;;;;;;6.10;3.13;;;;;;;;;;5047225;28;20182;-69
2021/12/31 01:48:28;;;;;;;7.35;3.25;;;;;;;;;;5046551;28;20469;-69
2021/12/31 01:50:54;;;;;;;4.80;3.13;;;;;;;;;;5047023;28;20040;-69
2021/12/31 01:53:26;;;;;;;4.85;3.33;;;;;;;;;;5054206;28;20416;-69
2021/12/31 01:55:56;;;;;;;7.68;3.40;;;;;;;;;;5058510;28;20037;-69
2021/12/31 01:58:23;;;;;;;6.88;3.85;;;;;;;;;;5053469;28;20091;-70
2021/12/31 02:00:49;;;;;;;6.50;3.67;;;;;;;;;;5047851;28;20033;-69
2021/12/31 02:03:18;;;;;;;5.72;3.65;;;;;;;;;;5036601;28;20021;-69
2021/12/31 02:05:44;;;;;;;4.93;3.72;;;;;;;;;;5048863;28;20044;-69
2021/12/31 02:08:10;;;;;;;6.05;3.60;;;;;;;;;;5056752;28;20537;-69
2021/12/31 02:10:36;;;;;;;5.38;3.50;;;;;;;;;;5053763;28;20067;-70
2021/12/31 02:13:03;;;;;;;5.68;3.90;;;;;;;;;;5050606;28;20033;-71
2021/12/31 02:15:30;;;;;;;5.00;3.28;;;;;;;;;;5055134;28;20025;-69
2021/12/31 02:17:59;;;;;;;6.03;3.55;;;;;;;;;;5057877;28;20379;-69
2021/12/31 02:20:34;;;;;;;3.63;2.72;;;;;;;;;;5058386;28;20081;-69
2021/12/31 02:23:06;;;;;;;4.97;3.10;;;;;;;;;;5043667;28;20036;-69
2021/12/31 02:25:35;;;;;;;4.78;2.33;;;;;;;;;;5045566;28;20021;-69
2021/12/31 02:28:01;;;;;;;3.47;2.92;;;;;;;;;;5050789;28;20563;-69
2021/12/31 02:30:29;;;;;;;5.20;2.60;;;;;;;;;;5060670;28;20350;-69
2021/12/31 02:32:55;;;;;;;6.70;3.15;;;;;;;;;;5048878;28;20032;-72
2021/12/31 02:35:21;;;;;;;4.55;2.80;;;;;;;;;;5048642;28;20454;-69
2021/12/31 02:37:48;;;;;;;7.30;3.03;;;;;;;;;;5032454;28;20612;-69
2021/12/31 02:40:15;;;;;;;5.32;3.08;;;;;;;;;;5054316;28;20071;-69
2021/12/31 02:42:42;;;;;;;3.63;2.75;;;;;;;;;;5056710;28;20154;-69
2021/12/31 02:45:09;;;;;;;4.22;2.45;;;;;;;;;;5055509;28;20166;-69
2021/12/31 02:47:37;;;;;;;4.15;2.60;;;;;;;;;;5053804;28;20033;-68
2021/12/31 02:50:05;;;;;;;3.72;2.92;;;;;;;;;;5049860;28;20031;-69
2021/12/31 02:52:32;;;;;;;3.22;2.58;;;;;;;;;;5065466;28;20614;-69
2021/12/31 02:55:00;;;;;;;5.18;2.70;;;;;;;;;;5057664;28;20077;-72
2021/12/31 02:57:26;;;;;;;5.32;2.50;;;;;;;;;;5054405;28;20519;-70
2021/12/31 02:59:52;;;;;;;4.82;2.63;;;;;;;;;;5053767;28;20037;-68
2021/12/31 03:02:24;;;;;;;3.60;2.65;;;;;;;;;;5052721;28;20035;-70
2021/12/31 03:04:51;;;;;;;4.30;3.03;;;;;;;;;;5057809;28;20028;-69
2021/12/31 03:07:18;;;;;;;4.47;2.83;;;;;;;;;;5063753;28;20123;-69
2021/12/31 03:09:47;;;;;;;4.72;2.50;;;;;;;;;;5057110;28;20099;-69
2021/12/31 03:12:14;;;;;;;4.57;2.33;;;;;;;;;;5056567;28;20490;-69
2021/12/31 03:14:42;;;;;;;7.13;2.92;;;;;;;;;;5054030;28;20057;-70
2021/12/31 03:17:09;;;;;;;5.18;3.00;;;;;;;;;;5048379;28;20043;-68
2021/12/31 03:19:35;;;;;;;4.32;2.90;;;;;;;;;;5056822;28;20476;-68
2021/12/31 03:22:01;;;;;;;5.53;2.92;;;;;;;;;;5053489;28;20045;-69
2021/12/31 03:24:28;;;;;;;6.80;3.00;;;;;;;;;;5049753;28;20016;-69
2021/12/31 03:26:54;;;;;;;5.18;2.95;;;;;;;;;;5047783;28;20048;-69
2021/12/31 03:29:20;;;;;;;7.18;3.53;;;;;;;;;;5060352;28;20016;-69
2021/12/31 03:31:46;;;;;;;6.97;2.83;;;;;;;;;;5056463;28;20047;-68
2021/12/31 03:34:14;;;;;;;5.75;2.60;;;;;;;;;;5036106;28;20556;-70
2021/12/31 03:36:41;;;;;;;3.13;2.10;;;;;;;;;;5036005;28;20466;-69
2021/12/31 03:39:07;;;;;;;8.65;2.92;;;;;;;;;;5036661;28;21262;-69
2021/12/31 03:41:33;;;;;;;3.38;2.50;;;;;;;;;;5055658;28;20468;-69
2021/12/31 03:43:59;;;;;;;3.70;2.58;;;;;;;;;;5052484;28;20400;-69
2021/12/31 03:46:25;;;;;;;3.88;2.20;;;;;;;;;;5055412;28;20105;-69
2021/12/31 03:48:52;;;;;;;3.83;2.65;;;;;;;;;;5065026;28;20108;-70
2021/12/31 03:51:18;;;;;;;4.40;3.22;;;;;;;;;;5060626;28;20028;-70
2021/12/31 03:53:44;;;;;;;6.43;2.58;;;;;;;;;;5061004;28;20027;-69
2021/12/31 03:56:10;;;;;;;6.53;2.40;;;;;;;;;;5053276;28;20029;-69
2021/12/31 03:58:36;;;;;;;6.63;2.55;;;;;;;;;;5059536;28;20253;-69
2021/12/31 04:01:03;;;;;;;3.30;1.90;;;;;;;;;;5052349;28;20031;-69
2021/12/31 04:03:29;;;;;;;2.80;1.85;;;;;;;;;;5044307;28;20416;-69
2021/12/31 04:05:55;;;;;;;5.13;1.90;;;;;;;;;;5040825;28;20199;-70
2021/12/31 04:08:21;;;;;;;2.45;1.58;;;;;;;;;;5057093;28;20075;-69
2021/12/31 04:10:48;;;;;;;4.97;3.03;;;;;;;;;;5056709;28;20040;-69
2021/12/31 04:13:14;;;;;;;5.60;3.10;;;;;;;;;;5056462;28;20545;-69
2021/12/31 04:15:40;;;;;;;5.20;2.17;;;;;;;;;;5054642;28;20029;-69
2021/12/31 04:18:06;;;;;;;2.83;1.65;;;;;;;;;;5062842;28;20032;-69
2021/12/31 04:23:11;;;;;;;5.82;2.78;;;;;;;;;;5053474;28;20131;-69
2021/12/31 04:25:37;;;;;;;3.65;2.53;;;;;;;;;;5045518;28;20502;-70
2021/12/31 04:28:04;;;;;;;4.47;2.05;;;;;;;;;;5058636;28;20032;-69
2021/12/31 04:30:30;;;;;;;3.05;1.75;;;;;;;;;;5050954;28;20404;-69
2021/12/31 04:32:56;;;;;;;3.22;1.52;;;;;;;;;;5056364;28;20029;-69
2021/12/31 04:35:23;;;;;;;2.58;1.52;;;;;;;;;;5057067;28;20610;-69
2021/12/31 04:37:49;;;;;;;2.55;1.80;;;;;;;;;;5047207;28;20039;-69
2021/12/31 04:40:15;;;;;;;3.40;1.73;;;;;;;;;;5049647;28;20510;-69
2021/12/31 04:42:42;;;;;;;3.65;1.80;;;;;;;;;;5055057;28;20052;-70
2021/12/31 04:45:09;;;;;;;3.13;1.65;;;;;;;;;;5040267;28;20029;-69
2021/12/31 04:47:36;;;;;;;3.35;2.13;;;;;;;;;;5054117;28;20032;-69
2021/12/31 04:50:02;;;;;;;3.55;2.20;;;;;;;;;;5050283;28;20025;-69
2021/12/31 04:52:28;;;;;;;3.83;1.90;;;;;;;;;;5043444;28;20510;-69
2021/12/31 04:54:54;;;;;;;4.53;2.05;;;;;;;;;;5054222;28;20039;-69
2021/12/31 04:57:24;;;;;;;3.60;2.03;;;;;;;;;;5051783;28;20472;-69
2021/12/31 04:59:50;;;;;;;5.40;2.08;;;;;;;;;;5044744;28;20029;-69
2021/12/31 05:02:16;;;;;;;2.58;1.98;;;;;;;;;;5053614;28;20025;-69
2021/12/31 05:04:42;;;;;;;2.70;1.67;;;;;;;;;;5061506;28;20098;-69
2021/12/31 05:07:08;;;;;;;4.75;2.35;;;;;;;;;;5052876;28;20065;-69
2021/12/31 05:09:34;;;;;;;3.03;2.08;;;;;;;;;;5054081;28;20025;-69
2021/12/31 05:12:02;;;;;;;3.00;2.20;;;;;;;;;;5056023;28;20104;-69
2021/12/31 05:14:28;;;;;;;2.60;2.08;;;;;;;;;;5049535;28;20028;-69
2021/12/31 05:16:54;;;;;;;3.08;2.50;;;;;;;;;;5056005;28;20481;-69
2021/12/31 05:19:20;;;;;;;3.95;2.30;;;;;;;;;;5055372;28;20127;-68
2021/12/31 05:21:46;;;;;;;3.28;2.35;;;;;;;;;;5037128;28;20055;-68
2021/12/31 05:24:14;;;;;;;4.18;2.13;;;;;;;;;;5054350;28;20550;-69
2021/12/31 05:26:40;;;;;;;4.38;2.40;;;;;;;;;;5062353;28;20033;-69
2021/12/31 05:29:06;;;;;;;3.45;2.17;;;;;;;;;;5053239;28;20203;-69
2021/12/31 05:31:33;;;;;;;4.80;2.67;;;;;;;;;;5046244;28;20111;-69
2021/12/31 05:33:59;;;;;;;4.47;2.47;;;;;;;;;;5054467;28;20063;-68
2021/12/31 05:36:25;;;;;;;4.18;2.50;;;;;;;;;;5054278;28;20025;-69
2021/12/31 05:38:51;;;;;;;4.20;2.50;;;;;;;;;;5052604;28;20494;-69
2021/12/31 05:41:17;;;;;;;3.28;2.55;;;;;;;;;;5056703;28;20031;-69
2021/12/31 05:43:44;;;;;;;3.50;2.80;;;;;;;;;;5053271;28;20553;-71
2021/12/31 05:46:10;;;;;;;4.05;2.60;;;;;;;;;;5052502;28;20031;-69
2021/12/31 05:48:36;;;;;;;3.70;2.63;;;;;;;;;;5045355;28;20025;-70
2021/12/31 05:51:03;;;;;;;5.13;2.70;;;;;;;;;;5043927;28;20546;-70
2021/12/31 05:53:29;;;;;;;6.20;2.83;;;;;;;;;;5054736;28;20029;-70
2021/12/31 05:55:55;;;;;;;3.92;3.20;;;;;;;;;;5055230;28;20063;-70
2021/12/31 05:58:21;;;;;;;4.80;2.92;;;;;;;;;;5031992;28;20031;-68
2021/12/31 06:00:48;;;;;;;6.43;3.30;;;;;;;;;;5049068;28;20043;-69
2021/12/31 06:03:14;;;;;;;5.60;3.47;;;;;;;;;;5046647;28;20801;-68
2021/12/31 06:05:40;;;;;;;4.93;2.70;;;;;;;;;;5040162;28;20041;-69
2021/12/31 06:08:06;;;;;;;4.18;2.42;;;;;;;;;;5048921;28;20033;-68
2021/12/31 06:10:32;;;;;;;3.25;2.90;;;;;;;;;;5051104;28;20028;-68
2021/12/31 06:13:00;;;;;;;5.30;3.10;;;;;;;;;;5031697;28;20024;-68
2021/12/31 06:15:28;;;;;;;4.18;2.72;;;;;;;;;;5047676;28;20029;-69
2021/12/31 06:17:54;;;;;;;4.38;3.00;;;;;;;;;;5051396;28;20765;-69
2021/12/31 06:20:20;;;;;;;5.25;3.20;;;;;;;;;;5032491;28;20471;-68
2021/12/31 06:22:46;;;;;;;7.90;3.95;;;;;;;;;;5044233;28;20025;-68
2021/12/31 06:25:13;;;;;;;8.75;4.22;;;;;;;;;;5048773;28;20520;-69
2021/12/31 06:27:39;;;;;;;6.85;4.43;;;;;;;;;;5049098;28;20025;-69
2021/12/31 06:30:06;;;;;;;5.70;3.28;;;;;;;;;;5048009;28;20044;-69
2021/12/31 06:32:32;;;;;;;5.70;3.58;;;;;;;;;;5044765;28;20620;-68
2021/12/31 06:34:58;;;;;;;6.68;3.40;;;;;;;;;;5050910;28;20086;-70
2021/12/31 06:37:25;;;;;;;7.65;3.20;;;;;;;;;;5047916;28;20548;-69
2021/12/31 06:39:53;;;;;;;6.13;3.88;;;;;;;;;;5050007;28;20047;-70
2021/12/31 06:42:19;;;;;;;5.03;3.83;;;;;;;;;;5044992;28;20081;-69
2021/12/31 06:44:45;;;;;;;6.38;3.67;;;;;;;;;;5047051;28;20093;-69
2021/12/31 06:47:11;;;;;;;5.13;4.00;;;;;;;;;;5055287;28;20042;-69
2021/12/31 06:49:37;;;;;;;8.68;4.22;;;;;;;;;;5046646;28;20081;-69
2021/12/31 06:52:04;;;;;;;10.05;4.95;;;;;;;;;;5042741;28;20072;-69
2021/12/31 06:54:30;;;;;;;6.75;4.53;;;;;;;;;;5050592;28;20025;-68
2021/12/31 06:56:56;;;;;;;7.93;4.40;;;;;;;;;;5042118;28;20586;-68
2021/12/31 06:59:24;;;;;;;7.88;5.10;;;;;;;;;;5045138;28;20053;-70
2021/12/31 07:01:50;;;;;;;6.97;4.45;;;;;;;;;;5047317;28;20570;-68
2021/12/31 07:04:16;;;;;;;7.25;4.15;;;;;;;;;;5047523;28;20499;-69
2021/12/31 07:06:42;;;;;;;9.35;4.07;;;;;;;;;;5047062;28;20081;-69
2021/12/31 07:09:08;;;;;;;6.38;4.00;;;;;;;;;;5045324;28;20029;-69
2021/12/31 07:11:34;;;;;;;6.80;4.72;;;;;;;;;;5049358;28;20033;-69
2021/12/31 07:14:01;;;;;;;7.82;5.00;;;;;;;;;;5043417;28;20029;-69
2021/12/31 07:16:27;;;;;;;8.18;5.10;;;;;;;;;;5045076;28;20132;-69
2021/12/31 07:18:53;;;;;;;7.80;4.22;;;;;;;;;;5040161;28;20029;-71
2021/12/31 07:21:19;;;;;;;7.53;4.32;;;;;;;;;;5042616;28;20062;-69
2021/12/31 07:23:45;;;;;;;6.05;3.90;;;;;;;;;;5030341;28;20465;-69
2021/12/31 07:26:11;;;;;;;5.78;3.65;;;;;;;;;;5047909;28;20068;-69
2021/12/31 07:28:37;;;;;;;5.70;3.65;;;;;;;;;;5044947;28;20060;-69
2021/12/31 07:31:06;;;;;;;5.00;3.58;;;;;;;;;;5046452;28;20041;-69
2021/12/31 07:33:32;;;;;;;8.60;3.75;;;;;;;;;;5048423;28;20028;-69
2021/12/31 07:36:00;;;;;;;4.97;3.42;;;;;;;;;;5042330;28;20032;-68
2021/12/31 07:38:35;;;;;;;6.40;3.90;;;;;;;;;;5042257;28;20029;-70
2021/12/31 07:41:02;;;;;;;7.22;3.80;;;;;;;;;;5036503;28;20033;-72
2021/12/31 07:43:28;;;;;;;5.45;4.13;;;;;;;;;;5040718;28;20036;-68
2021/12/31 07:45:55;;;;;;;8.18;4.05;;;;;;;;;;5039245;28;20214;-72
2021/12/31 07:48:21;;;;;;;5.78;4.07;;;;;;;;;;5042352;28;20124;-68
2021/12/31 07:50:48;;;;;;;6.53;4.90;;;;;;;;;;5038661;28;20092;-68
2021/12/31 07:53:14;;;;;;;14.23;7.38;;;;;;;;;;5049833;28;20671;-68
2021/12/31 07:55:40;;;;;;;15.07;7.03;;;;;;;;;;5047052;28;20032;-71
2021/12/31 07:58:06;;;;;;;9.18;6.88;;;;;;;;;;5049177;28;20035;-68
2021/12/31 08:00:34;;;;;;;13.18;7.38;;;;;;;;;;5052276;28;20066;-68
2021/12/31 08:03:00;;;;;;;12.82;7.68;;;;;;;;;;5040646;28;20071;-68
2021/12/31 08:05:27;;;;;;;12.43;8.82;;;;;;;;;;5036318;28;20539;-69
2021/12/31 08:07:53;;;;;;;15.85;9.98;;;;;;;;;;5042321;28;20029;-68
2021/12/31 08:10:20;;;;;;;16.70;10.55;;;;;;;;;;5051779;28;20033;-68
2021/12/31 08:12:46;;;;;;;11.68;8.95;;;;;;;;;;5049517;28;20024;-69
2021/12/31 08:15:12;;;;;;;17.83;10.88;;;;;;;;;;5054197;28;20048;-68
2021/12/31 08:17:38;;;;;;;13.27;8.93;;;;;;;;;;5048819;28;20020;-68
2021/12/31 08:20:05;;;;;;;14.52;10.18;;;;;;;;;;5047051;28;20087;-68
2021/12/31 08:22:32;;;;;;;14.63;10.13;;;;;;;;;;5033221;28;20048;-74
2021/12/31 08:24:58;;;;;;;15.20;10.95;;;;;;;;;;5046892;28;20033;-68
2021/12/31 08:27:24;;;;;;;18.98;10.75;;;;;;;;;;5036354;28;20041;-68
2021/12/31 08:29:50;;;;;;;17.42;11.55;;;;;;;;;;5020982;28;20025;-71
2021/12/31 08:32:16;;;;;;;18.80;11.35;;;;;;;;;;5033137;28;20028;-68
2021/12/31 08:34:43;;;;;;;17.33;11.43;;;;;;;;;;5044841;28;20048;-68
2021/12/31 08:37:09;;;;;;;17.63;10.27;;;;;;;;;;5044443;28;20493;-68
2021/12/31 08:39:35;;;;;;;15.80;11.00;;;;;;;;;;5040465;28;20022;-68
2021/12/31 08:42:02;;;;;;;15.85;10.98;;;;;;;;;;5058098;28;20024;-68
2021/12/31 08:44:28;;;;;;;14.52;9.07;;;;;;;;;;5053146;28;20075;-68
2021/12/31 08:46:54;;;;;;;14.82;10.48;;;;;;;;;;5054948;28;20032;-68
2021/12/31 08:49:21;;;;;;;14.30;10.52;;;;;;;;;;5053036;28;20021;-68
2021/12/31 08:51:48;;;;;;;13.35;11.60;;;;;;;;;;5051437;28;20127;-70
2021/12/31 08:54:14;;;;;;;18.95;12.27;;;;;;;;;;5051557;28;20032;-68
2021/12/31 08:56:40;;;;;;;17.67;11.85;;;;;;;;;;5045718;28;20017;-72
2021/12/31 08:59:06;;;;;;;15.38;10.65;;;;;;;;;;5054415;28;20025;-68
2021/12/31 09:01:33;;;;;;;18.75;11.98;;;;;;;;;;5037119;28;20043;-68
2021/12/31 09:03:59;;;;;;;17.92;12.60;;;;;;;;;;5040694;28;20028;-69
2021/12/31 09:06:25;;;;;;;19.77;13.00;;;;;;;;;;5013421;28;20531;-69
2021/12/31 09:08:51;;;;;;;19.55;12.80;;;;;;;;;;5036410;28;20086;-68
2021/12/31 09:11:17;;;;;;;16.27;11.55;;;;;;;;;;5037462;28;20063;-69
2021/12/31 09:13:46;;;;;;;19.15;12.43;;;;;;;;;;5024806;28;20033;-69
2021/12/31 09:16:12;;;;;;;13.32;10.80;;;;;;;;;;5036740;28;20489;-68
2021/12/31 09:18:38;;;;;;;16.60;11.57;;;;;;;;;;5044566;28;20043;-68
2021/12/31 09:21:05;;;;;;;15.30;11.73;;;;;;;;;;5048867;28;20048;-68
2021/12/31 09:23:31;;;;;;;21.30;14.35;;;;;;;;;;5044554;28;20021;-69
2021/12/31 09:25:58;;;;;;;18.83;14.48;;;;;;;;;;5036741;28;20082;-74
2021/12/31 09:28:25;;;;;;;16.73;13.35;;;;;;;;;;5040262;28;20022;-72
2021/12/31 09:30:51;;;;;;;16.27;13.60;;;;;;;;;;5028274;28;20037;-67
2021/12/31 09:33:17;;;;;;;15.27;11.60;;;;;;;;;;5032515;28;20094;-68
2021/12/31 09:35:44;;;;;;;19.33;12.75;;;;;;;;;;5037173;28;20425;-68
2021/12/31 09:38:10;;;;;;;15.23;11.90;;;;;;;;;;5052525;28;20041;-68
2021/12/31 09:40:36;;;;;;;19.70;12.50;;;;;;;;;;5044449;28;20027;-68
2021/12/31 09:43:07;;;;;;;16.45;11.93;;;;;;;;;;5050157;28;20029;-68
2021/12/31 09:45:34;;;;;;;16.23;11.82;;;;;;;;;;5042048;28;20037;-68
2021/12/31 09:48:00;;;;;;;16.42;11.25;;;;;;;;;;5053725;28;20040;-67
2021/12/31 09:50:29;;;;;;;16.55;11.98;;;;;;;;;;5053626;28;20020;-68
2021/12/31 09:52:55;;;;;;;17.92;12.68;;;;;;;;;;5050499;28;20107;-68
2021/12/31 09:55:37;;;;;;;18.95;13.65;;;;;;;;;;5045112;28;20031;-68
2021/12/31 09:58:03;;;;;;;;;;;;;;;;;;5045006;28;20036;-68
2021/12/31 10:00:29;;;;;;;16.95;12.02;;;;;;;;;;5050722;28;19970;-68
2021/12/31 10:03:14;;;;;;;16.45;11.27;;;;;;;;;;5050491;28;20560;-68
2021/12/31 10:05:41;;;;;;;15.55;10.65;;;;;;;;;;5049822;28;20119;-70
2021/12/31 10:08:24;;;;;;;14.13;10.75;;;;;;;;;;5050180;28;20045;-69
2021/12/31 10:11:06;;;;;;;18.33;10.70;;;;;;;;;;5044975;28;20043;-69
2021/12/31 10:13:33;;;;;;;18.25;10.43;;;;;;;;;;5045906;28;20032;-68
2021/12/31 10:15:59;;;;;;;21.48;10.60;;;;;;;;;;5035013;28;20067;-68
2021/12/31 10:18:29;;;;;;;17.23;10.95;;;;;;;;;;5002596;28;20474;-69
2021/12/31 10:20:55;;;;;;;15.23;9.68;;;;;;;;;;5031855;28;20132;-69
2021/12/31 10:23:21;;;;;;;18.95;11.82;;;;;;;;;;5044622;28;20416;-70
2021/12/31 10:25:48;;;;;;;12.52;10.65;;;;;;;;;;5025896;28;20164;-68
2021/12/31 10:28:16;;;;;;;16.63;9.88;;;;;;;;;;5045906;28;20035;-69
2021/12/31 10:30:45;;;;;;;16.50;10.40;;;;;;;;;;5036193;28;20459;-69
2021/12/31 10:33:12;;;;;;;15.07;9.70;;;;;;;;;;5036893;28;21360;-69
2021/12/31 10:35:40;;;;;;;15.02;10.25;;;;;;;;;;5043140;28;20083;-71
2021/12/31 10:38:06;;;;;;;16.63;10.77;;;;;;;;;;5030995;28;20035;-69
2021/12/31 10:40:36;;;;;;;11.70;8.75;;;;;;;;;;5029160;28;20028;-69
2021/12/31 10:43:06;;;;;;;14.23;9.68;;;;;;;;;;5027643;28;20029;-69
2021/12/31 10:45:34;;;;;;;12.23;9.35;;;;;;;;;;5030612;28;20020;-69
2021/12/31 10:48:07;;;;;;;12.82;8.68;;;;;;;;;;5037448;28;20064;-69
2021/12/31 10:50:35;;;;;;;10.60;9.00;;;;;;;;;;5031273;28;20020;-70
2021/12/31 10:55:30;;;;;;;20.90;9.38;;;;;;;;;;5035483;28;20021;-69
2021/12/31 10:57:57;;;;;;;15.30;8.95;;;;;;;;;;5025763;28;20025;-69
2021/12/31 11:00:26;;;;;;;15.95;8.10;;;;;;;;;;5023517;28;20040;-70
2021/12/31 11:02:53;;;;;;;15.88;8.55;;;;;;;;;;5029048;28;20112;-69
2021/12/31 11:05:21;;;;;;;12.63;7.63;;;;;;;;;;5028268;28;20051;-68
2021/12/31 11:07:47;;;;;;;15.57;7.63;;;;;;;;;;5036747;28;20052;-73
2021/12/31 11:10:14;;;;;;;13.55;6.90;;;;;;;;;;5024065;28;20752;-69
2021/12/31 11:12:43;;;;;;;10.63;6.88;;;;;;;;;;5019110;28;20500;-69
2021/12/31 11:15:10;;;;;;;14.00;6.38;;;;;;;;;;5026780;28;20022;-70
2021/12/31 11:17:37;;;;;;;8.27;5.38;;;;;;;;;;5021462;28;20025;-69
2021/12/31 11:20:05;;;;;;;12.07;5.28;;;;;;;;;;5028146;28;20112;-69
2021/12/31 11:22:31;;;;;;;10.40;5.80;;;;;;;;;;5055360;28;20479;-69
2021/12/31 11:25:20;;;;;;;10.30;5.50;;;;;;;;;;5055456;28;20063;-69
2021/12/31 11:27:47;;;;;;;14.00;5.50;;;;;;;;;;5050495;28;20049;-68
2021/12/31 11:30:32;;;;;;;13.40;5.70;;;;;;;;;;5028096;28;20096;-69
2021/12/31 11:33:05;;;;;;;8.07;4.82;;;;;;;;;;5025915;28;20629;-68
2021/12/31 11:35:32;;;;;;;7.00;5.03;;;;;;;;;;5027660;28;20029;-69
2021/12/31 11:37:58;;;;;;;7.43;4.28;;;;;;;;;;5031203;28;20043;-69
2021/12/31 11:40:35;;;;;;;11.45;4.63;;;;;;;;;;5022417;28;20608;-69
2021/12/31 11:43:24;;;;;;;7.25;4.90;;;;;;;;;;5022670;28;20060;-69
2021/12/31 11:46:10;;;;;;;4.97;3.90;;;;;;;;;;5022706;28;20025;-69
2021/12/31 11:48:46;;;;;;;7.70;3.97;;;;;;;;;;5029475;28;20033;-69
2021/12/31 11:51:13;;;;;;;7.97;4.00;;;;;;;;;;5040719;28;20021;-69
2021/12/31 11:53:58;;;;;;;5.80;3.85;;;;;;;;;;5044505;28;20432;-70
2021/12/31 11:56:39;;;;;;;9.02;4.40;;;;;;;;;;5033103;28;20095;-69
2021/12/31 11:59:11;;;;;;;9.80;4.10;;;;;;;;;;5008731;28;20029;-72
2021/12/31 12:01:38;;;;;;;7.63;4.50;;;;;;;;;;5045091;28;20028;-71
2021/12/31 12:04:22;;;;;;;9.43;4.43;;;;;;;;;;5044775;28;20103;-69
2021/12/31 12:07:09;;;;;;;12.02;4.82;;;;;;;;;;5026166;28;20123;-69
2021/12/31 12:09:41;;;;;;;9.85;5.18;;;;;;;;;;5043116;28;20027;-69
2021/12/31 12:12:27;;;;;;;11.20;5.22;;;;;;;;;;5043036;28;20111;-70
2021/12/31 12:14:54;;;;;;;7.15;4.78;;;;;;;;;;5044128;28;20096;-69
2021/12/31 12:17:29;;;;;;;8.00;4.38;;;;;;;;;;5044037;28;20063;-70
2021/12/31 12:20:02;;;;;;;10.07;4.35;;;;;;;;;;5037530;28;20036;-69
2021/12/31 12:22:33;;;;;;;8.82;5.47;;;;;;;;;;5038344;28;20041;-69
2021/12/31 12:24:59;;;;;;;8.02;4.75;;;;;;;;;;5022891;28;20049;-69
2021/12/31 12:27:26;;;;;;;13.45;4.78;;;;;;;;;;5024337;28;20040;-69
2021/12/31 12:29:54;;;;;;;8.30;5.40;;;;;;;;;;5006655;28;20036;-72
2021/12/31 12:35:23;;;;;;;11.27;4.22;;;;;;;;;;5023071;28;20040;-71
2021/12/31 12:37:57;;;;;;;8.70;4.97;;;;;;;;;;5031480;28;20068;-69
2021/12/31 12:40:41;;;;;;;9.52;5.07;;;;;;;;;;5024408;28;20041;-69
2021/12/31 12:43:14;;;;;;;11.20;4.47;;;;;;;;;;5024161;28;20059;-69
2021/12/31 12:45:44;;;;;;;10.02;4.63;;;;;;;;;;5024128;28;20041;-71
2021/12/31 12:48:10;;;;;;;6.43;4.43;;;;;;;;;;5027731;28;20104;-70
2021/12/31 12:50:37;;;;;;;9.50;5.15;;;;;;;;;;5023259;28;20626;-70
2021/12/31 12:53:03;;;;;;;7.95;4.18;;;;;;;;;;5016769;28;20033;-71
2021/12/31 12:55:30;;;;;;;8.95;4.93;;;;;;;;;;5034590;28;20023;-70
2021/12/31 12:57:58;;;;;;;8.65;4.30;;;;;;;;;;5031534;28;20531;-69
2021/12/31 13:00:32;;;;;;;8.70;4.25;;;;;;;;;;5036939;28;20033;-70
2021/12/31 13:03:04;;;;;;;8.13;4.82;;;;;;;;;;5034203;28;20028;-71
2021/12/31 13:05:30;;;;;;;8.07;4.30;;;;;;;;;;5040606;28;20029;-70
2021/12/31 13:07:56;;;;;;;7.38;3.78;;;;;;;;;;5030641;28;20519;-70
2021/12/31 13:10:23;;;;;;;7.93;3.75;;;;;;;;;;5044525;28;20141;-69
2021/12/31 13:12:50;;;;;;;8.85;3.58;;;;;;;;;;5027630;28;20579;-69
2021/12/31 13:15:16;;;;;;;6.90;4.15;;;;;;;;;;5041733;28;20022;-69
2021/12/31 13:17:55;;;;;;;5.00;3.95;;;;;;;;;;5029996;28;20033;-70
2021/12/31 13:20:24;;;;;;;6.38;3.13;;;;;;;;;;5038727;28;20021;-70
2021/12/31 13:22:54;;;;;;;7.45;3.80;;;;;;;;;;5022270;28;20057;-70
2021/12/31 13:25:20;;;;;;;7.03;3.95;;;;;;;;;;5023192;28;20030;-71
2021/12/31 13:27:46;;;;;;;4.72;3.63;;;;;;;;;;5028205;28;20047;-71
2021/12/31 13:30:13;;;;;;;4.15;3.75;;;;;;;;;;5033627;28;20084;-70
2021/12/31 13:32:44;;;;;;;11.18;4.05;;;;;;;;;;5063437;28;20112;-71
2021/12/31 13:35:14;;;;;;;6.18;4.50;;;;;;;;;;5030017;28;20034;-70
2021/12/31 13:37:42;;;;;;;6.90;4.03;;;;;;;;;;5025028;28;20087;-70
2021/12/31 13:40:15;;;;;;;4.32;3.38;;;;;;;;;;5034250;28;20417;-70
2021/12/31 13:42:43;;;;;;;5.70;3.30;;;;;;;;;;5024595;28;20025;-70
2021/12/31 13:45:22;;;;;;;4.60;3.70;;;;;;;;;;5033641;28;20018;-70
2021/12/31 13:47:49;;;;;;;8.15;3.50;;;;;;;;;;5022913;28;20040;-72
2021/12/31 13:50:15;;;;;;;6.47;3.67;;;;;;;;;;5025386;28;20132;-70
2021/12/31 13:52:49;;;;;;;8.38;3.70;;;;;;;;;;5029295;28;20513;-70
2021/12/31 13:55:35;;;;;;;4.80;3.65;;;;;;;;;;4994532;28;20434;-70
2021/12/31 13:58:03;;;;;;;6.22;3.80;;;;;;;;;;5028922;28;20603;-70
2021/12/31 14:00:30;;;;;;;7.07;3.85;;;;;;;;;;5035390;28;20075;-69
2021/12/31 14:02:56;;;;;;;7.65;4.38;;;;;;;;;;5029466;28;20180;-70
2021/12/31 14:05:27;;;;;;;7.93;4.40;;;;;;;;;;5036746;28;20021;-69
2021/12/31 14:10:22;;;;;;;10.95;5.00;;;;;;;;;;5060840;28;20032;-69
2021/12/31 14:12:57;;;;;;;6.68;4.00;;;;;;;;;;5040499;28;20024;-70
2021/12/31 14:15:24;;;;;;;9.07;4.65;;;;;;;;;;5041672;28;20020;-69
2021/12/31 14:17:51;;;;;;;8.98;4.07;;;;;;;;;;5039435;28;20025;-70
2021/12/31 14:20:20;;;;;;;6.38;4.03;;;;;;;;;;5035963;28;20047;-70
2021/12/31 14:22:47;;;;;;;5.07;3.70;;;;;;;;;;5025476;28;20164;-68
2021/12/31 14:25:13;;;;;;;5.43;3.67;;;;;;;;;;5032088;28;20025;-68
2021/12/31 14:27:39;;;;;;;7.50;4.13;;;;;;;;;;5028817;28;21952;-69
2021/12/31 14:30:08;;;;;;;11.00;4.55;;;;;;;;;;5036870;28;20036;-72
2021/12/31 14:32:36;;;;;;;9.10;4.53;;;;;;;;;;5050922;28;20025;-68
2021/12/31 14:35:02;;;;;;;8.45;4.72;;;;;;;;;;5036641;28;20024;-68
2021/12/31 14:37:29;;;;;;;9.63;5.45;;;;;;;;;;5041284;28;20375;-68
2021/12/31 14:39:57;;;;;;;8.38;5.43;;;;;;;;;;5032582;28;20033;-71
2021/12/31 14:42:28;;;;;;;9.93;6.10;;;;;;;;;;5027044;28;20041;-68
2021/12/31 14:44:54;;;;;;;8.77;5.88;;;;;;;;;;5037527;28;20026;-68
2021/12/31 14:47:20;;;;;;;8.45;4.68;;;;;;;;;;5029269;28;20104;-69
2021/12/31 14:49:46;;;;;;;9.27;5.30;;;;;;;;;;5026556;28;20079;-69
2021/12/31 14:52:13;;;;;;;7.95;4.90;;;;;;;;;;5013446;28;20028;-70
2021/12/31 14:54:40;;;;;;;7.40;4.38;;;;;;;;;;5033925;28;20017;-73
2021/12/31 14:57:07;;;;;;;8.13;4.75;;;;;;;;;;5026054;28;20072;-72
2021/12/31 14:59:35;;;;;;;8.40;4.72;;;;;;;;;;5026953;28;20026;-69